sensor_id;sensor_type;location;lat;lon;timestamp;pressure;altitude;pressure_sealevel;temperature;humidity
44992;BME280;56865;51.618;7.406;2023-04-20T00:27:22;101292.09;;;22.00;39.66
44992;BME280;56865;51.618;7.406;2023-04-20T00:29:52;101288.59;;;22.07;38.89
44992;BME280;56865;51.618;7.406;2023-04-20T00:32:23;101279.28;;;21.83;39.14
44992;BME280;56865;51.618;7.406;2023-04-20T00:34:54;101280.13;;;21.87;39.84
44992;BME280;56865;51.618;7.406;2023-04-20T00:37:25;101269.66;;;21.96;41.39
44992;BME280;56865;51.618;7.406;2023-04-20T00:39:56;101266.41;;;21.74;40.01
44992;BME280;56865;51.618;7.406;2023-04-20T00:42:30;101271.69;;;21.62;39.15
44992;BME280;56865;51.618;7.406;2023-04-20T00:45:01;101264.00;;;21.48;39.86
44992;BME280;56865;51.618;7.406;2023-04-20T00:47:35;101261.34;;;21.57;40.58
44992;BME280;56865;51.618;7.406;2023-04-20T00:50:08;101251.88;;;21.51;41.13
44992;BME280;56865;51.618;7.406;2023-04-20T00:52:42;101248.50;;;21.40;40.55
44992;BME280;56865;51.618;7.406;2023-04-20T00:55:21;101250.28;;;21.36;39.66
44992;BME280;56865;51.618;7.406;2023-04-20T00:57:56;101249.44;;;21.33;39.67
44992;BME280;56865;51.618;7.406;2023-04-20T01:00:26;101241.69;;;21.26;39.91
44992;BME280;56865;51.618;7.406;2023-04-20T01:02:57;101233.91;;;21.30;40.04
44992;BME280;56865;51.618;7.406;2023-04-20T01:05:27;101239.91;;;21.35;39.64
44992;BME280;56865;51.618;7.406;2023-04-20T01:07:57;101230.34;;;21.41;40.31
44992;BME280;56865;51.618;7.406;2023-04-20T01:13:18;101215.47;;;21.62;41.54
44992;BME280;56865;51.618;7.406;2023-04-20T01:15:48;101218.06;;;21.62;40.67
44992;BME280;56865;51.618;7.406;2023-04-20T01:18:19;101218.16;;;21.48;39.09
44992;BME280;56865;51.618;7.406;2023-04-20T01:20:49;101207.72;;;21.54;40.09
44992;BME280;56865;51.618;7.406;2023-04-20T01:23:22;101202.41;;;21.73;42.23
44992;BME280;56865;51.618;7.406;2023-04-20T01:25:51;101186.13;;;21.57;40.66
44992;BME280;56865;51.618;7.406;2023-04-20T01:28:23;101186.22;;;21.43;42.27
44992;BME280;56865;51.618;7.406;2023-04-20T01:30:53;101178.25;;;21.68;43.49
44992;BME280;56865;51.618;7.406;2023-04-20T01:33:23;101169.44;;;21.80;41.85
44992;BME280;56865;51.618;7.406;2023-04-20T01:35:53;101170.44;;;21.69;41.47
44992;BME280;56865;51.618;7.406;2023-04-20T01:38:25;101163.50;;;21.71;42.29
44992;BME280;56865;51.618;7.406;2023-04-20T01:40:57;101173.13;;;21.62;41.77
44992;BME280;56865;51.618;7.406;2023-04-20T01:43:28;101172.22;;;21.64;41.72
44992;BME280;56865;51.618;7.406;2023-04-20T01:45:58;101164.94;;;21.96;41.86
44992;BME280;56865;51.618;7.406;2023-04-20T01:48:28;101158.97;;;21.90;41.65
44992;BME280;56865;51.618;7.406;2023-04-20T01:50:57;101155.66;;;21.74;41.10
44992;BME280;56865;51.618;7.406;2023-04-20T01:53:30;101145.19;;;21.82;43.45
44992;BME280;56865;51.618;7.406;2023-04-20T01:56:03;101146.81;;;21.92;42.54
44992;BME280;56865;51.618;7.406;2023-04-20T01:58:33;101145.00;;;21.99;42.06
44992;BME280;56865;51.618;7.406;2023-04-20T02:01:03;101138.97;;;21.99;42.68
44992;BME280;56865;51.618;7.406;2023-04-20T02:03:33;101132.38;;;21.71;42.51
44992;BME280;56865;51.618;7.406;2023-04-20T02:06:03;101132.28;;;21.78;43.17
44992;BME280;56865;51.618;7.406;2023-04-20T02:08:37;101135.78;;;21.73;42.93
44992;BME280;56865;51.618;7.406;2023-04-20T02:11:08;101128.44;;;22.10;43.54
44992;BME280;56865;51.618;7.406;2023-04-20T02:13:41;101131.25;;;21.92;43.44
44992;BME280;56865;51.618;7.406;2023-04-20T02:16:17;101126.13;;;21.86;44.43
44992;BME280;56865;51.618;7.406;2023-04-20T02:18:48;101117.91;;;22.20;43.51
44992;BME280;56865;51.618;7.406;2023-04-20T02:21:20;101119.81;;;22.06;43.53
44992;BME280;56865;51.618;7.406;2023-04-20T02:23:52;101119.50;;;22.31;45.99
44992;BME280;56865;51.618;7.406;2023-04-20T02:26:25;101122.13;;;22.26;45.14
44992;BME280;56865;51.618;7.406;2023-04-20T02:28:55;101120.41;;;22.27;46.14
44992;BME280;56865;51.618;7.406;2023-04-20T02:31:25;101125.13;;;21.97;45.00
44992;BME280;56865;51.618;7.406;2023-04-20T02:33:54;101116.03;;;22.30;45.40
44992;BME280;56865;51.618;7.406;2023-04-20T02:36:24;101112.75;;;22.19;45.25
44992;BME280;56865;51.618;7.406;2023-04-20T02:38:56;101101.88;;;21.89;46.54
44992;BME280;56865;51.618;7.406;2023-04-20T02:41:26;101103.34;;;22.08;45.93
44992;BME280;56865;51.618;7.406;2023-04-20T02:43:56;101104.03;;;22.20;45.50
44992;BME280;56865;51.618;7.406;2023-04-20T02:46:25;101104.69;;;22.36;45.45
44992;BME280;56865;51.618;7.406;2023-04-20T02:48:55;101113.38;;;22.33;45.91
44992;BME280;56865;51.618;7.406;2023-04-20T02:51:25;101100.94;;;21.95;46.33
44992;BME280;56865;51.618;7.406;2023-04-20T02:53:57;101100.22;;;21.82;47.67
44992;BME280;56865;51.618;7.406;2023-04-20T02:56:27;101095.75;;;21.93;46.55
44992;BME280;56865;51.618;7.406;2023-04-20T02:58:56;101099.88;;;22.10;47.84
44992;BME280;56865;51.618;7.406;2023-04-20T03:01:26;101093.13;;;21.95;48.63
44992;BME280;56865;51.618;7.406;2023-04-20T03:03:56;101100.59;;;22.19;49.33
44992;BME280;56865;51.618;7.406;2023-04-20T03:06:26;101093.16;;;21.93;48.42
44992;BME280;56865;51.618;7.406;2023-04-20T03:08:58;101099.13;;;22.00;50.13
44992;BME280;56865;51.618;7.406;2023-04-20T03:11:27;101094.72;;;22.06;48.94
44992;BME280;56865;51.618;7.406;2023-04-20T03:13:57;101100.28;;;22.43;49.60
44992;BME280;56865;51.618;7.406;2023-04-20T03:16:27;101091.72;;;21.70;49.58
44992;BME280;56865;51.618;7.406;2023-04-20T03:18:56;101096.38;;;22.12;48.34
44992;BME280;56865;51.618;7.406;2023-04-20T03:21:26;101082.84;;;21.90;48.43
44992;BME280;56865;51.618;7.406;2023-04-20T03:23:59;101083.72;;;21.89;48.53
44992;BME280;56865;51.618;7.406;2023-04-20T03:26:29;101078.00;;;21.61;49.76
44992;BME280;56865;51.618;7.406;2023-04-20T03:28:58;101087.31;;;21.77;50.80
44992;BME280;56865;51.618;7.406;2023-04-20T03:31:28;101079.56;;;21.74;49.95
44992;BME280;56865;51.618;7.406;2023-04-20T03:33:58;101080.88;;;22.06;49.08
44992;BME280;56865;51.618;7.406;2023-04-20T03:36:27;101075.13;;;21.84;50.36
44992;BME280;56865;51.618;7.406;2023-04-20T03:39:00;101069.41;;;21.51;50.71
44992;BME280;56865;51.618;7.406;2023-04-20T03:41:30;101071.69;;;21.82;49.19
44992;BME280;56865;51.618;7.406;2023-04-20T03:44:00;101071.47;;;21.97;48.50
44992;BME280;56865;51.618;7.406;2023-04-20T03:46:29;101066.34;;;21.91;52.26
44992;BME280;56865;51.618;7.406;2023-04-20T03:48:59;101066.47;;;21.85;49.76
44992;BME280;56865;51.618;7.406;2023-04-20T03:51:28;101065.72;;;20.92;51.26
44992;BME280;56865;51.618;7.406;2023-04-20T03:54:01;101070.81;;;21.02;51.02
44992;BME280;56865;51.618;7.406;2023-04-20T03:56:31;101059.25;;;21.34;52.47
44992;BME280;56865;51.618;7.406;2023-04-20T03:59:01;101066.78;;;21.58;51.86
44992;BME280;56865;51.618;7.406;2023-04-20T04:01:30;101051.44;;;21.35;51.59
44992;BME280;56865;51.618;7.406;2023-04-20T04:04:00;101055.00;;;21.30;51.28
44992;BME280;56865;51.618;7.406;2023-04-20T04:06:30;101059.38;;;21.98;52.38
44992;BME280;56865;51.618;7.406;2023-04-20T04:09:03;101064.66;;;21.88;50.95
44992;BME280;56865;51.618;7.406;2023-04-20T04:11:32;101043.69;;;22.05;50.54
44992;BME280;56865;51.618;7.406;2023-04-20T04:14:02;101051.78;;;21.84;51.41
44992;BME280;56865;51.618;7.406;2023-04-20T04:16:32;101054.78;;;22.15;51.35
44992;BME280;56865;51.618;7.406;2023-04-20T04:19:02;101051.56;;;21.99;50.00
44992;BME280;56865;51.618;7.406;2023-04-20T04:21:32;101050.25;;;21.66;51.46
44992;BME280;56865;51.618;7.406;2023-04-20T04:24:05;101048.06;;;22.02;51.70
44992;BME280;56865;51.618;7.406;2023-04-20T04:26:35;101049.41;;;21.65;51.06
44992;BME280;56865;51.618;7.406;2023-04-20T04:29:17;101052.75;;;21.73;50.92
44992;BME280;56865;51.618;7.406;2023-04-20T04:34:51;101052.56;;;21.89;51.48
44992;BME280;56865;51.618;7.406;2023-04-20T04:38:04;101052.75;;;21.73;50.86
44992;BME280;56865;51.618;7.406;2023-04-20T04:40:59;101047.56;;;21.75;50.24
44992;BME280;56865;51.618;7.406;2023-04-20T04:46:57;101052.16;;;22.17;51.59
44992;BME280;56865;51.618;7.406;2023-04-20T04:53:04;101040.78;;;21.63;50.83
44992;BME280;56865;51.618;7.406;2023-04-20T05:34:21;101059.28;;;20.25;58.96
44992;BME280;56865;51.618;7.406;2023-04-20T05:36:52;101065.34;;;20.27;58.83
44992;BME280;56865;51.618;7.406;2023-04-20T05:39:23;101063.72;;;20.10;59.83
44992;BME280;56865;51.618;7.406;2023-04-20T05:52:12;101077.44;;;20.19;63.55
44992;BME280;56865;51.618;7.406;2023-04-20T05:54:42;101080.66;;;20.55;63.79
44992;BME280;56865;51.618;7.406;2023-04-20T05:57:12;101083.41;;;20.38;65.04
44992;BME280;56865;51.618;7.406;2023-04-20T05:59:41;101079.22;;;20.15;64.40
44992;BME280;56865;51.618;7.406;2023-04-20T06:02:12;101080.88;;;20.27;64.27
44992;BME280;56865;51.618;7.406;2023-04-20T06:04:41;101082.50;;;20.40;65.09
44992;BME280;56865;51.618;7.406;2023-04-20T06:07:14;101082.66;;;20.11;65.87
44992;BME280;56865;51.618;7.406;2023-04-20T06:09:44;101079.25;;;20.06;66.47
44992;BME280;56865;51.618;7.406;2023-04-20T06:12:13;101074.97;;;20.03;67.25
44992;BME280;56865;51.618;7.406;2023-04-20T06:14:43;101080.19;;;19.94;67.00
44992;BME280;56865;51.618;7.406;2023-04-20T06:17:13;101087.00;;;20.15;66.50
44992;BME280;56865;51.618;7.406;2023-04-20T06:19:42;101081.94;;;19.87;67.78
44992;BME280;56865;51.618;7.406;2023-04-20T06:22:15;101081.97;;;19.75;67.52
44992;BME280;56865;51.618;7.406;2023-04-20T06:24:45;101076.78;;;19.76;66.34
44992;BME280;56865;51.618;7.406;2023-04-20T06:27:15;101074.22;;;19.83;67.62
44992;BME280;56865;51.618;7.406;2023-04-20T06:29:44;101071.56;;;19.93;67.24
44992;BME280;56865;51.618;7.406;2023-04-20T06:32:14;101065.75;;;19.20;68.01
44992;BME280;56865;51.618;7.406;2023-04-20T06:34:44;101069.00;;;19.79;68.26
44992;BME280;56865;51.618;7.406;2023-04-20T06:37:16;101063.84;;;19.73;67.16
44992;BME280;56865;51.618;7.406;2023-04-20T06:39:46;101065.59;;;19.68;68.52
44992;BME280;56865;51.618;7.406;2023-04-20T06:42:17;101062.13;;;19.80;67.29
44992;BME280;56865;51.618;7.406;2023-04-20T06:44:46;101058.69;;;19.73;67.54
44992;BME280;56865;51.618;7.406;2023-04-20T06:47:16;101045.78;;;19.64;68.08
44992;BME280;56865;51.618;7.406;2023-04-20T06:49:46;101060.25;;;20.08;68.96
44992;BME280;56865;51.618;7.406;2023-04-20T06:52:18;101068.91;;;20.01;67.42
44992;BME280;56865;51.618;7.406;2023-04-20T06:54:49;101061.09;;;20.17;69.72
44992;BME280;56865;51.618;7.406;2023-04-20T06:57:20;101055.25;;;19.68;68.37
44992;BME280;56865;51.618;7.406;2023-04-20T06:59:51;101061.22;;;19.92;68.04
44992;BME280;56865;51.618;7.406;2023-04-20T07:02:21;101054.91;;;20.38;66.94
44992;BME280;56865;51.618;7.406;2023-04-20T07:04:51;101056.00;;;19.98;67.11
44992;BME280;56865;51.618;7.406;2023-04-20T07:07:24;101062.78;;;20.19;67.68
44992;BME280;56865;51.618;7.406;2023-04-20T07:09:53;101052.38;;;20.27;66.72
44992;BME280;56865;51.618;7.406;2023-04-20T07:12:24;101048.84;;;20.37;66.67
44992;BME280;56865;51.618;7.406;2023-04-20T07:14:54;101049.06;;;20.03;67.61
44992;BME280;56865;51.618;7.406;2023-04-20T07:17:26;101053.25;;;20.26;68.07
44992;BME280;56865;51.618;7.406;2023-04-20T07:19:58;101051.53;;;20.25;67.00
44992;BME280;56865;51.618;7.406;2023-04-20T07:22:39;101051.44;;;20.40;68.05
44992;BME280;56865;51.618;7.406;2023-04-20T07:25:09;101051.53;;;20.26;67.32
44992;BME280;56865;51.618;7.406;2023-04-20T07:27:39;101048.84;;;20.40;67.00
44992;BME280;56865;51.618;7.406;2023-04-20T07:30:09;101051.34;;;20.51;66.60
44992;BME280;56865;51.618;7.406;2023-04-20T07:32:39;101046.00;;;20.76;67.49
44992;BME280;56865;51.618;7.406;2023-04-20T07:35:10;101050.44;;;20.57;66.73
44992;BME280;56865;51.618;7.406;2023-04-20T07:37:44;101050.53;;;20.44;66.61
44992;BME280;56865;51.618;7.406;2023-04-20T07:40:16;101046.97;;;20.61;67.54
44992;BME280;56865;51.618;7.406;2023-04-20T07:42:46;101045.81;;;20.96;67.46
44992;BME280;56865;51.618;7.406;2023-04-20T07:45:17;101039.09;;;20.78;67.41
44992;BME280;56865;51.618;7.406;2023-04-20T07:47:48;101045.13;;;20.77;67.97
44992;BME280;56865;51.618;7.406;2023-04-20T07:50:20;101041.25;;;21.20;66.21
44992;BME280;56865;51.618;7.406;2023-04-20T08:06:14;101037.47;;;20.58;66.84
44992;BME280;56865;51.618;7.406;2023-04-20T08:08:43;101034.91;;;20.57;66.61
44992;BME280;56865;51.618;7.406;2023-04-20T08:11:24;101036.47;;;20.80;66.44
44992;BME280;56865;51.618;7.406;2023-04-20T08:13:54;101034.22;;;20.35;66.06
44992;BME280;56865;51.618;7.406;2023-04-20T08:16:25;101021.72;;;20.86;65.10
44992;BME280;56865;51.618;7.406;2023-04-20T08:18:58;101028.66;;;20.84;65.05
44992;BME280;56865;51.618;7.406;2023-04-20T08:21:31;101032.06;;;20.88;67.03
44992;BME280;56865;51.618;7.406;2023-04-20T08:24:01;101020.19;;;20.59;66.49
44992;BME280;56865;51.618;7.406;2023-04-20T08:26:32;101022.78;;;20.62;66.54
44992;BME280;56865;51.618;7.406;2023-04-20T08:29:02;101015.44;;;20.03;66.44
44992;BME280;56865;51.618;7.406;2023-04-20T08:31:33;101017.91;;;20.19;66.40
44992;BME280;56865;51.618;7.406;2023-04-20T08:34:03;101017.91;;;20.23;66.99
44992;BME280;56865;51.618;7.406;2023-04-20T08:36:37;101016.00;;;20.45;65.85
44992;BME280;56865;51.618;7.406;2023-04-20T08:39:07;101018.69;;;20.33;67.25
44992;BME280;56865;51.618;7.406;2023-04-20T08:41:39;101016.66;;;20.75;66.38
44992;BME280;56865;51.618;7.406;2023-04-20T08:44:09;101016.81;;;20.52;65.99
44992;BME280;56865;51.618;7.406;2023-04-20T08:46:40;101018.78;;;20.19;66.07
44992;BME280;56865;51.618;7.406;2023-04-20T08:49:10;101025.63;;;20.33;67.22
44992;BME280;56865;51.618;7.406;2023-04-20T08:51:43;101020.81;;;20.89;67.27
44992;BME280;56865;51.618;7.406;2023-04-20T08:54:13;101031.41;;;20.62;67.57
44992;BME280;56865;51.618;7.406;2023-04-20T08:56:44;101031.88;;;21.06;67.77
44992;BME280;56865;51.618;7.406;2023-04-20T08:59:14;101042.75;;;20.49;69.97
44992;BME280;56865;51.618;7.406;2023-04-20T09:01:44;101041.53;;;20.90;71.23
44992;BME280;56865;51.618;7.406;2023-04-20T09:04:14;101054.75;;;20.59;72.68
44992;BME280;56865;51.618;7.406;2023-04-20T09:06:48;101069.81;;;20.00;74.39
44992;BME280;56865;51.618;7.406;2023-04-20T09:09:19;101052.50;;;20.07;73.80
44992;BME280;56865;51.618;7.406;2023-04-20T09:11:58;101038.03;;;19.69;75.25
44992;BME280;56865;51.618;7.406;2023-04-20T09:14:28;101044.78;;;20.04;74.92
44992;BME280;56865;51.618;7.406;2023-04-20T09:16:58;101045.53;;;20.18;76.01
44992;BME280;56865;51.618;7.406;2023-04-20T09:19:30;101038.44;;;20.46;76.38
44992;BME280;56865;51.618;7.406;2023-04-20T09:22:03;101044.78;;;20.04;75.94
44992;BME280;56865;51.618;7.406;2023-04-20T09:24:34;101047.44;;;19.80;75.67
44992;BME280;56865;51.618;7.406;2023-04-20T09:27:13;101043.88;;;20.09;76.71
44992;BME280;56865;51.618;7.406;2023-04-20T09:29:55;101052.59;;;19.90;77.46
44992;BME280;56865;51.618;7.406;2023-04-20T09:32:27;101043.59;;;20.48;77.13
44992;BME280;56865;51.618;7.406;2023-04-20T09:34:59;101038.53;;;20.31;77.36
44992;BME280;56865;51.618;7.406;2023-04-20T09:37:32;101038.16;;;20.87;77.67
44992;BME280;56865;51.618;7.406;2023-04-20T09:40:11;101036.53;;;20.72;77.28
44992;BME280;56865;51.618;7.406;2023-04-20T09:42:43;101034.56;;;20.99;77.79
44992;BME280;56865;51.618;7.406;2023-04-20T09:45:13;101034.63;;;20.91;76.80
44992;BME280;56865;51.618;7.406;2023-04-20T09:47:43;101021.09;;;21.45;76.86
44992;BME280;56865;51.618;7.406;2023-04-20T09:50:15;101015.06;;;21.41;77.43
44992;BME280;56865;51.618;7.406;2023-04-20T09:52:58;101020.75;;;21.76;78.00
44992;BME280;56865;51.618;7.406;2023-04-20T09:55:29;101026.59;;;21.89;78.45
44992;BME280;56865;51.618;7.406;2023-04-20T09:58:00;101022.66;;;21.60;77.39
44992;BME280;56865;51.618;7.406;2023-04-20T10:00:30;101031.56;;;21.37;79.21
44992;BME280;56865;51.618;7.406;2023-04-20T10:03:00;101019.78;;;21.82;78.57
44992;BME280;56865;51.618;7.406;2023-04-20T10:05:32;101019.25;;;21.55;77.31
44992;BME280;56865;51.618;7.406;2023-04-20T10:08:07;101022.22;;;21.91;76.75
44992;BME280;56865;51.618;7.406;2023-04-20T10:10:41;101020.53;;;21.90;76.70
44992;BME280;56865;51.618;7.406;2023-04-20T10:13:12;101023.47;;;21.62;76.67
44992;BME280;56865;51.618;7.406;2023-04-20T10:15:45;101021.59;;;21.77;76.20
44992;BME280;56865;51.618;7.406;2023-04-20T10:18:18;101015.38;;;21.87;75.33
44992;BME280;56865;51.618;7.406;2023-04-20T10:20:49;101011.38;;;21.63;75.53
44992;BME280;56865;51.618;7.406;2023-04-20T10:23:22;101013.56;;;21.92;75.18
44992;BME280;56865;51.618;7.406;2023-04-20T10:25:54;101014.25;;;21.38;75.27
44992;BME280;56865;51.618;7.406;2023-04-20T10:28:36;100999.94;;;21.78;73.84
44992;BME280;56865;51.618;7.406;2023-04-20T10:31:08;101022.00;;;21.39;74.01
44992;BME280;56865;51.618;7.406;2023-04-20T10:33:50;101015.19;;;21.32;74.17
44992;BME280;56865;51.618;7.406;2023-04-20T10:36:26;101004.69;;;21.41;73.22
44992;BME280;56865;51.618;7.406;2023-04-20T10:38:59;101012.19;;;21.68;72.50
44992;BME280;56865;51.618;7.406;2023-04-20T10:41:31;101009.88;;;21.45;71.35
44992;BME280;56865;51.618;7.406;2023-04-20T10:44:07;101010.91;;;21.97;70.54
44992;BME280;56865;51.618;7.406;2023-04-20T10:46:37;101011.78;;;21.96;71.18
44992;BME280;56865;51.618;7.406;2023-04-20T10:49:08;101013.41;;;21.37;70.43
44992;BME280;56865;51.618;7.406;2023-04-20T10:51:44;101007.44;;;21.29;70.14
44992;BME280;56865;51.618;7.406;2023-04-20T10:54:17;101010.34;;;21.78;69.72
44992;BME280;56865;51.618;7.406;2023-04-20T10:56:48;101010.34;;;21.74;69.77
44992;BME280;56865;51.618;7.406;2023-04-20T10:59:19;101012.13;;;21.71;69.30
44992;BME280;56865;51.618;7.406;2023-04-20T11:01:49;101011.56;;;21.46;67.66
44992;BME280;56865;51.618;7.406;2023-04-20T11:04:28;101008.16;;;21.43;68.52
44992;BME280;56865;51.618;7.406;2023-04-20T11:07:03;101015.69;;;21.62;69.22
44992;BME280;56865;51.618;7.406;2023-04-20T11:09:40;101009.63;;;21.63;67.87
44992;BME280;56865;51.618;7.406;2023-04-20T11:12:11;100992.28;;;21.70;68.66
44992;BME280;56865;51.618;7.406;2023-04-20T11:14:49;101003.47;;;21.72;67.71
44992;BME280;56865;51.618;7.406;2023-04-20T11:17:20;100999.88;;;22.42;68.22
44992;BME280;56865;51.618;7.406;2023-04-20T11:20:05;101001.28;;;22.61;67.86
44992;BME280;56865;51.618;7.406;2023-04-20T11:22:38;100989.78;;;22.75;66.47
44992;BME280;56865;51.618;7.406;2023-04-20T11:25:12;100997.22;;;22.45;66.19
44992;BME280;56865;51.618;7.406;2023-04-20T11:27:42;100995.63;;;22.34;63.70
44992;BME280;56865;51.618;7.406;2023-04-20T11:30:12;100995.78;;;22.25;63.69
44992;BME280;56865;51.618;7.406;2023-04-20T11:35:31;101005.25;;;21.70;63.48
44992;BME280;56865;51.618;7.406;2023-04-20T11:38:04;100997.88;;;22.00;62.91
44992;BME280;56865;51.618;7.406;2023-04-20T11:40:39;100996.03;;;22.63;65.36
44992;BME280;56865;51.618;7.406;2023-04-20T11:43:09;100985.81;;;23.02;63.70
44992;BME280;56865;51.618;7.406;2023-04-20T11:45:39;100984.56;;;23.64;62.07
44992;BME280;56865;51.618;7.406;2023-04-20T11:48:09;100987.53;;;24.25;61.36
44992;BME280;56865;51.618;7.406;2023-04-20T11:50:38;100989.25;;;23.87;59.18
44992;BME280;56865;51.618;7.406;2023-04-20T11:53:08;100984.69;;;23.58;60.03
44992;BME280;56865;51.618;7.406;2023-04-20T11:55:42;100989.47;;;24.52;58.38
44992;BME280;56865;51.618;7.406;2023-04-20T11:58:12;100988.84;;;24.76;59.86
44992;BME280;56865;51.618;7.406;2023-04-20T12:00:42;100994.03;;;24.07;56.48
44992;BME280;56865;51.618;7.406;2023-04-20T12:03:12;101002.22;;;24.62;59.35
44992;BME280;56865;51.618;7.406;2023-04-20T12:05:44;101000.16;;;24.41;58.16
44992;BME280;56865;51.618;7.406;2023-04-20T12:08:17;101003.63;;;24.41;57.84
44992;BME280;56865;51.618;7.406;2023-04-20T12:10:49;100995.91;;;25.06;58.80
44992;BME280;56865;51.618;7.406;2023-04-20T12:13:19;101004.94;;;24.23;57.02
44992;BME280;56865;51.618;7.406;2023-04-20T12:15:48;100993.84;;;25.17;58.09
44992;BME280;56865;51.618;7.406;2023-04-20T12:18:18;101007.09;;;24.76;56.48
44992;BME280;56865;51.618;7.406;2023-04-20T12:20:54;100997.28;;;24.86;56.62
44992;BME280;56865;51.618;7.406;2023-04-20T12:23:25;100992.41;;;24.39;55.99
44992;BME280;56865;51.618;7.406;2023-04-20T12:25:59;100999.44;;;24.36;58.34
44992;BME280;56865;51.618;7.406;2023-04-20T12:28:29;100996.34;;;24.20;54.29
44992;BME280;56865;51.618;7.406;2023-04-20T12:30:59;100990.44;;;24.47;55.10
44992;BME280;56865;51.618;7.406;2023-04-20T12:33:29;101000.84;;;25.15;56.91
44992;BME280;56865;51.618;7.406;2023-04-20T12:35:58;101001.50;;;24.90;54.93
44992;BME280;56865;51.618;7.406;2023-04-20T12:38:28;100994.50;;;24.92;56.19
44992;BME280;56865;51.618;7.406;2023-04-20T12:41:00;100997.41;;;25.13;55.83
44992;BME280;56865;51.618;7.406;2023-04-20T12:43:30;101002.63;;;24.81;55.04
44992;BME280;56865;51.618;7.406;2023-04-20T12:46:00;101009.25;;;24.24;55.03
44992;BME280;56865;51.618;7.406;2023-04-20T12:48:30;101007.41;;;23.92;55.39
44992;BME280;56865;51.618;7.406;2023-04-20T12:50:59;101004.53;;;24.75;58.19
44992;BME280;56865;51.618;7.406;2023-04-20T12:53:29;101006.94;;;24.12;55.97
44992;BME280;56865;51.618;7.406;2023-04-20T12:56:04;101004.28;;;24.49;56.19
44992;BME280;56865;51.618;7.406;2023-04-20T12:58:36;101000.00;;;24.83;55.70
44992;BME280;56865;51.618;7.406;2023-04-20T13:01:08;100996.56;;;25.44;55.31
44992;BME280;56865;51.618;7.406;2023-04-20T13:03:37;100992.56;;;25.01;54.33
44992;BME280;56865;51.618;7.406;2023-04-20T13:06:09;100984.63;;;25.04;55.76
44992;BME280;56865;51.618;7.406;2023-04-20T13:08:39;100995.53;;;25.18;55.12
44992;BME280;56865;51.618;7.406;2023-04-20T13:11:12;100989.66;;;24.78;53.13
44992;BME280;56865;51.618;7.406;2023-04-20T13:13:43;100983.25;;;24.90;54.38
44992;BME280;56865;51.618;7.406;2023-04-20T13:16:15;100982.28;;;24.27;53.26
44992;BME280;56865;51.618;7.406;2023-04-20T13:18:45;100980.50;;;24.27;55.20
44992;BME280;56865;51.618;7.406;2023-04-20T13:21:14;100979.06;;;24.15;53.32
44992;BME280;56865;51.618;7.406;2023-04-20T13:23:44;100986.47;;;23.96;51.94
44992;BME280;56865;51.618;7.406;2023-04-20T13:26:16;100988.72;;;23.73;53.60
44992;BME280;56865;51.618;7.406;2023-04-20T13:28:46;100982.41;;;23.83;52.93
44992;BME280;56865;51.618;7.406;2023-04-20T13:31:15;100978.28;;;24.46;54.30
44992;BME280;56865;51.618;7.406;2023-04-20T13:33:45;100971.91;;;24.58;53.54
44992;BME280;56865;51.618;7.406;2023-04-20T13:36:20;100975.94;;;25.64;52.84
44992;BME280;56865;51.618;7.406;2023-04-20T13:38:49;100969.81;;;25.94;52.15
44992;BME280;56865;51.618;7.406;2023-04-20T13:41:23;100970.03;;;26.41;52.67
44992;BME280;56865;51.618;7.406;2023-04-20T13:43:53;100965.78;;;26.37;49.95
44992;BME280;56865;51.618;7.406;2023-04-20T13:46:23;100966.81;;;25.78;49.40
44992;BME280;56865;51.618;7.406;2023-04-20T13:48:53;100959.22;;;26.25;48.53
44992;BME280;56865;51.618;7.406;2023-04-20T13:51:22;100952.63;;;26.40;51.13
44992;BME280;56865;51.618;7.406;2023-04-20T13:53:52;100962.06;;;26.95;52.33
44992;BME280;56865;51.618;7.406;2023-04-20T13:56:25;100956.44;;;26.82;47.80
44992;BME280;56865;51.618;7.406;2023-04-20T13:58:55;100941.56;;;27.76;48.67
44992;BME280;56865;51.618;7.406;2023-04-20T14:01:27;100948.09;;;26.71;46.30
44992;BME280;56865;51.618;7.406;2023-04-20T14:03:57;100947.44;;;26.39;47.91
44992;BME280;56865;51.618;7.406;2023-04-20T14:06:27;100955.38;;;25.82;48.56
44992;BME280;56865;51.618;7.406;2023-04-20T14:08:56;100950.81;;;25.60;48.62
44992;BME280;56865;51.618;7.406;2023-04-20T14:11:29;100941.38;;;25.26;49.02
44992;BME280;56865;51.618;7.406;2023-04-20T14:13:59;100935.50;;;25.20;48.10
44992;BME280;56865;51.618;7.406;2023-04-20T14:16:29;100930.44;;;24.83;50.36
44992;BME280;56865;51.618;7.406;2023-04-20T14:18:59;100935.06;;;25.04;46.76
44992;BME280;56865;51.618;7.406;2023-04-20T14:21:30;100930.94;;;25.56;49.96
44992;BME280;56865;51.618;7.406;2023-04-20T14:24:00;100933.09;;;25.42;48.14
44992;BME280;56865;51.618;7.406;2023-04-20T14:26:32;100927.47;;;26.11;49.02
44992;BME280;56865;51.618;7.406;2023-04-20T14:29:02;100925.47;;;25.92;48.24
44992;BME280;56865;51.618;7.406;2023-04-20T14:31:37;100933.50;;;25.85;47.10
44992;BME280;56865;51.618;7.406;2023-04-20T14:34:09;100922.53;;;26.02;48.73
44992;BME280;56865;51.618;7.406;2023-04-20T14:36:42;100926.72;;;25.52;48.34
44992;BME280;56865;51.618;7.406;2023-04-20T14:39:12;100929.56;;;25.14;47.12
44992;BME280;56865;51.618;7.406;2023-04-20T14:41:46;100926.72;;;25.22;48.34
44992;BME280;56865;51.618;7.406;2023-04-20T14:44:16;100924.59;;;25.05;48.61
44992;BME280;56865;51.618;7.406;2023-04-20T14:46:46;100921.81;;;25.11;50.88
44992;BME280;56865;51.618;7.406;2023-04-20T14:49:16;100920.25;;;25.06;49.56
44992;BME280;56865;51.618;7.406;2023-04-20T14:51:46;100922.56;;;24.85;48.61
44992;BME280;56865;51.618;7.406;2023-04-20T14:54:16;100915.22;;;24.33;48.65
44992;BME280;56865;51.618;7.406;2023-04-20T14:56:48;100912.97;;;26.01;50.00